sensor_id;sensor_type;location;lat;lon;timestamp;temperature;humidity
49711;DHT22;35602;44.534;18.696;2022-11-04T00:02:50;22.90;55.50
49711;DHT22;35602;44.534;18.696;2022-11-04T00:07:51;22.90;55.60
49711;DHT22;35602;44.534;18.696;2022-11-04T00:13:11;22.90;55.50
49711;DHT22;35602;44.534;18.696;2022-11-04T00:18:11;22.90;55.60
49711;DHT22;35602;44.534;18.696;2022-11-04T00:23:12;22.90;55.60
49711;DHT22;35602;44.534;18.696;2022-11-04T00:28:31;22.90;55.40
49711;DHT22;35602;44.534;18.696;2022-11-04T00:33:45;22.90;55.50
49711;DHT22;35602;44.534;18.696;2022-11-04T00:38:46;22.90;55.60
49711;DHT22;35602;44.534;18.696;2022-11-04T00:43:47;22.90;55.60
49711;DHT22;35602;44.534;18.696;2022-11-04T00:48:48;22.90;55.50
49711;DHT22;35602;44.534;18.696;2022-11-04T00:53:49;22.90;55.50
49711;DHT22;35602;44.534;18.696;2022-11-04T00:58:51;22.90;55.50
49711;DHT22;35602;44.534;18.696;2022-11-04T01:03:52;22.90;55.40
49711;DHT22;35602;44.534;18.696;2022-11-04T01:08:58;22.90;55.50
49711;DHT22;35602;44.534;18.696;2022-11-04T01:14:00;22.90;55.50
49711;DHT22;35602;44.534;18.696;2022-11-04T01:19:01;22.90;55.60
49711;DHT22;35602;44.534;18.696;2022-11-04T01:24:02;22.90;55.50
49711;DHT22;35602;44.534;18.696;2022-11-04T01:29:03;22.90;55.60
49711;DHT22;35602;44.534;18.696;2022-11-04T01:34:04;22.90;55.50
49711;DHT22;35602;44.534;18.696;2022-11-04T01:39:05;22.90;55.50
49711;DHT22;35602;44.534;18.696;2022-11-04T01:44:45;22.90;55.50
49711;DHT22;35602;44.534;18.696;2022-11-04T01:50:31;22.90;55.40
49711;DHT22;35602;44.534;18.696;2022-11-04T01:55:40;22.90;55.50
49711;DHT22;35602;44.534;18.696;2022-11-04T02:00:42;23.00;55.50
49711;DHT22;35602;44.534;18.696;2022-11-04T02:05:45;22.90;55.50
49711;DHT22;35602;44.534;18.696;2022-11-04T02:10:54;22.90;55.40
49711;DHT22;35602;44.534;18.696;2022-11-04T02:16:11;22.90;55.40
49711;DHT22;35602;44.534;18.696;2022-11-04T02:34:49;22.90;55.30
49711;DHT22;35602;44.534;18.696;2022-11-04T02:49:45;22.90;55.20
49711;DHT22;35602;44.534;18.696;2022-11-04T02:54:57;22.90;55.40
49711;DHT22;35602;44.534;18.696;2022-11-04T03:00:10;22.90;55.30
49711;DHT22;35602;44.534;18.696;2022-11-04T03:05:16;22.90;55.40
49711;DHT22;35602;44.534;18.696;2022-11-04T03:10:29;22.90;55.30
49711;DHT22;35602;44.534;18.696;2022-11-04T03:15:33;22.90;55.20
49711;DHT22;35602;44.534;18.696;2022-11-04T03:20:38;22.90;55.30
49711;DHT22;35602;44.534;18.696;2022-11-04T03:25:44;22.90;55.30
49711;DHT22;35602;44.534;18.696;2022-11-04T03:30:47;22.90;55.30
49711;DHT22;35602;44.534;18.696;2022-11-04T03:35:48;22.90;55.30
49711;DHT22;35602;44.534;18.696;2022-11-04T03:40:50;22.90;55.40
49711;DHT22;35602;44.534;18.696;2022-11-04T03:45:51;22.90;55.20
49711;DHT22;35602;44.534;18.696;2022-11-04T03:50:52;22.80;55.20
49711;DHT22;35602;44.534;18.696;2022-11-04T04:03:28;22.90;55.10
49711;DHT22;35602;44.534;18.696;2022-11-04T04:08:50;22.90;55.30
49711;DHT22;35602;44.534;18.696;2022-11-04T04:14:05;22.80;55.30
49711;DHT22;35602;44.534;18.696;2022-11-04T04:19:15;22.80;55.10
49711;DHT22;35602;44.534;18.696;2022-11-04T04:24:20;22.80;55.20
49711;DHT22;35602;44.534;18.696;2022-11-04T04:29:43;22.80;55.20
49711;DHT22;35602;44.534;18.696;2022-11-04T04:34:44;22.80;55.20
49711;DHT22;35602;44.534;18.696;2022-11-04T04:39:58;22.80;55.20
49711;DHT22;35602;44.534;18.696;2022-11-04T04:45:22;22.80;55.10
49711;DHT22;35602;44.534;18.696;2022-11-04T04:50:48;22.80;55.10
49711;DHT22;35602;44.534;18.696;2022-11-04T04:55:50;22.80;55.00
49711;DHT22;35602;44.534;18.696;2022-11-04T05:00:51;22.80;55.10
49711;DHT22;35602;44.534;18.696;2022-11-04T05:05:52;22.80;55.10
49711;DHT22;35602;44.534;18.696;2022-11-04T05:10:53;22.80;55.10
49711;DHT22;35602;44.534;18.696;2022-11-04T05:15:54;22.80;55.10
49711;DHT22;35602;44.534;18.696;2022-11-04T05:20:55;22.80;55.10
49711;DHT22;35602;44.534;18.696;2022-11-04T05:25:57;22.80;55.10
49711;DHT22;35602;44.534;18.696;2022-11-04T05:31:02;22.80;55.00
49711;DHT22;35602;44.534;18.696;2022-11-04T05:36:11;22.80;55.00
49711;DHT22;35602;44.534;18.696;2022-11-04T05:41:13;22.80;54.90
49711;DHT22;35602;44.534;18.696;2022-11-04T05:46:25;22.90;55.00
49711;DHT22;35602;44.534;18.696;2022-11-04T05:51:27;22.80;54.90
49711;DHT22;35602;44.534;18.696;2022-11-04T05:56:28;22.80;54.90
49711;DHT22;35602;44.534;18.696;2022-11-04T06:01:39;22.80;54.90
49711;DHT22;35602;44.534;18.696;2022-11-04T06:06:40;22.80;54.90
49711;DHT22;35602;44.534;18.696;2022-11-04T06:11:42;22.80;54.80
49711;DHT22;35602;44.534;18.696;2022-11-04T06:16:43;22.80;54.90
49711;DHT22;35602;44.534;18.696;2022-11-04T06:21:44;22.80;54.80
49711;DHT22;35602;44.534;18.696;2022-11-04T06:26:44;22.80;54.90
49711;DHT22;35602;44.534;18.696;2022-11-04T06:31:45;22.80;54.80
49711;DHT22;35602;44.534;18.696;2022-11-04T06:36:48;22.80;54.70
49711;DHT22;35602;44.534;18.696;2022-11-04T06:41:49;22.80;54.80
49711;DHT22;35602;44.534;18.696;2022-11-04T06:46:50;22.80;54.80
49711;DHT22;35602;44.534;18.696;2022-11-04T06:51:50;22.80;54.70
49711;DHT22;35602;44.534;18.696;2022-11-04T06:56:51;22.80;54.70
49711;DHT22;35602;44.534;18.696;2022-11-04T07:01:52;22.80;54.60
49711;DHT22;35602;44.534;18.696;2022-11-04T07:06:53;22.80;54.70
49711;DHT22;35602;44.534;18.696;2022-11-04T07:11:54;22.70;54.40
49711;DHT22;35602;44.534;18.696;2022-11-04T07:16:55;22.70;54.50
49711;DHT22;35602;44.534;18.696;2022-11-04T07:21:56;22.80;54.50
49711;DHT22;35602;44.534;18.696;2022-11-04T07:26:57;22.70;54.50
49711;DHT22;35602;44.534;18.696;2022-11-04T07:31:58;22.70;54.50
49711;DHT22;35602;44.534;18.696;2022-11-04T07:36:59;22.70;54.60
49711;DHT22;35602;44.534;18.696;2022-11-04T07:41:59;22.80;54.50
49711;DHT22;35602;44.534;18.696;2022-11-04T07:47:00;22.70;54.40
49711;DHT22;35602;44.534;18.696;2022-11-04T07:52:01;22.70;54.50
49711;DHT22;35602;44.534;18.696;2022-11-04T07:57:02;22.70;54.40
49711;DHT22;35602;44.534;18.696;2022-11-04T08:02:03;22.80;54.50
49711;DHT22;35602;44.534;18.696;2022-11-04T08:07:07;22.80;54.60
49711;DHT22;35602;44.534;18.696;2022-11-04T08:12:08;22.80;54.50
49711;DHT22;35602;44.534;18.696;2022-11-04T08:17:09;22.90;54.40
49711;DHT22;35602;44.534;18.696;2022-11-04T08:22:10;23.00;54.30
49711;DHT22;35602;44.534;18.696;2022-11-04T08:27:10;23.00;54.20
49711;DHT22;35602;44.534;18.696;2022-11-04T08:32:14;22.90;54.20
49711;DHT22;35602;44.534;18.696;2022-11-04T08:37:16;22.90;54.20
49711;DHT22;35602;44.534;18.696;2022-11-04T08:42:16;23.00;54.40
49711;DHT22;35602;44.534;18.696;2022-11-04T08:47:17;23.00;54.40
49711;DHT22;35602;44.534;18.696;2022-11-04T08:52:18;23.00;54.40
49711;DHT22;35602;44.534;18.696;2022-11-04T08:57:19;23.00;54.40
49711;DHT22;35602;44.534;18.696;2022-11-04T09:02:20;23.00;54.40
49711;DHT22;35602;44.534;18.696;2022-11-04T09:07:21;23.00;54.50
49711;DHT22;35602;44.534;18.696;2022-11-04T09:12:21;23.10;55.10
49711;DHT22;35602;44.534;18.696;2022-11-04T09:17:22;23.10;55.20
49711;DHT22;35602;44.534;18.696;2022-11-04T09:22:23;23.20;55.30
49711;DHT22;35602;44.534;18.696;2022-11-04T09:27:24;23.20;55.50
49711;DHT22;35602;44.534;18.696;2022-11-04T09:32:25;23.20;55.50
49711;DHT22;35602;44.534;18.696;2022-11-04T09:37:26;23.20;55.60
49711;DHT22;35602;44.534;18.696;2022-11-04T09:47:32;23.20;55.80
49711;DHT22;35602;44.534;18.696;2022-11-04T09:52:38;23.30;56.10
49711;DHT22;35602;44.534;18.696;2022-11-04T09:57:39;23.30;56.10
49711;DHT22;35602;44.534;18.696;2022-11-04T10:18:34;23.40;56.60
49711;DHT22;35602;44.534;18.696;2022-11-04T10:23:44;23.40;57.20
49711;DHT22;35602;44.534;18.696;2022-11-04T10:29:01;23.40;56.90
49711;DHT22;35602;44.534;18.696;2022-11-04T10:34:11;23.40;56.80
49711;DHT22;35602;44.534;18.696;2022-11-04T10:39:29;23.40;57.30
49711;DHT22;35602;44.534;18.696;2022-11-04T10:44:33;23.30;56.40
49711;DHT22;35602;44.534;18.696;2022-11-04T11:04:32;23.30;56.50
49711;DHT22;35602;44.534;18.696;2022-11-04T11:15:36;23.40;57.00
49711;DHT22;35602;44.534;18.696;2022-11-04T11:20:38;23.40;57.10
49711;DHT22;35602;44.534;18.696;2022-11-04T11:25:48;23.40;57.30
49711;DHT22;35602;44.534;18.696;2022-11-04T11:31:00;23.50;57.50
49711;DHT22;35602;44.534;18.696;2022-11-04T11:36:19;23.50;57.60
49711;DHT22;35602;44.534;18.696;2022-11-04T11:41:20;23.50;57.30
49711;DHT22;35602;44.534;18.696;2022-11-04T11:46:30;23.50;57.10
49711;DHT22;35602;44.534;18.696;2022-11-04T11:51:39;23.50;57.00
49711;DHT22;35602;44.534;18.696;2022-11-04T11:56:43;23.50;57.10
49711;DHT22;35602;44.534;18.696;2022-11-04T12:02:54;23.50;57.00
49711;DHT22;35602;44.534;18.696;2022-11-04T12:08:17;23.50;56.90
49711;DHT22;35602;44.534;18.696;2022-11-04T12:13:30;23.30;57.40
49711;DHT22;35602;44.534;18.696;2022-11-04T12:29:59;23.50;57.60
49711;DHT22;35602;44.534;18.696;2022-11-04T12:44:22;23.60;57.90
49711;DHT22;35602;44.534;18.696;2022-11-04T12:49:52;23.50;57.60
49711;DHT22;35602;44.534;18.696;2022-11-04T13:00:36;23.50;57.70
49711;DHT22;35602;44.534;18.696;2022-11-04T13:05:53;23.50;57.80
49711;DHT22;35602;44.534;18.696;2022-11-04T13:12:49;23.50;57.70
49711;DHT22;35602;44.534;18.696;2022-11-04T13:17:59;23.50;57.90
49711;DHT22;35602;44.534;18.696;2022-11-04T13:23:04;23.50;57.80
49711;DHT22;35602;44.534;18.696;2022-11-04T13:28:11;23.40;57.90
49711;DHT22;35602;44.534;18.696;2022-11-04T13:35:22;23.40;58.00
49711;DHT22;35602;44.534;18.696;2022-11-04T13:49:16;23.30;58.80
49711;DHT22;35602;44.534;18.696;2022-11-04T13:54:39;23.20;59.30
49711;DHT22;35602;44.534;18.696;2022-11-04T13:59:42;23.20;59.60
49711;DHT22;35602;44.534;18.696;2022-11-04T14:06:06;23.20;59.90
49711;DHT22;35602;44.534;18.696;2022-11-04T14:11:09;23.20;59.90
49711;DHT22;35602;44.534;18.696;2022-11-04T14:16:44;23.10;60.50
49711;DHT22;35602;44.534;18.696;2022-11-04T14:22:05;23.10;60.30
49711;DHT22;35602;44.534;18.696;2022-11-04T14:27:23;23.10;60.40
49711;DHT22;35602;44.534;18.696;2022-11-04T14:32:30;23.00;60.80
49711;DHT22;35602;44.534;18.696;2022-11-04T14:37:34;23.00;61.10
49711;DHT22;35602;44.534;18.696;2022-11-04T14:42:53;23.10;61.00
49711;DHT22;35602;44.534;18.696;2022-11-04T14:48:20;23.10;60.90
49711;DHT22;35602;44.534;18.696;2022-11-04T14:53:33;23.20;60.70
49711;DHT22;35602;44.534;18.696;2022-11-04T14:58:35;23.10;60.50
49711;DHT22;35602;44.534;18.696;2022-11-04T15:03:37;23.10;60.70
49711;DHT22;35602;44.534;18.696;2022-11-04T15:08:47;23.10;60.60
49711;DHT22;35602;44.534;18.696;2022-11-04T15:13:55;23.10;60.40
49711;DHT22;35602;44.534;18.696;2022-11-04T15:18:57;23.10;60.40
49711;DHT22;35602;44.534;18.696;2022-11-04T15:23:58;23.10;60.50
49711;DHT22;35602;44.534;18.696;2022-11-04T15:29:07;23.10;60.40
49711;DHT22;35602;44.534;18.696;2022-11-04T15:34:11;23.20;60.50
49711;DHT22;35602;44.534;18.696;2022-11-04T15:40:12;23.10;60.40
49711;DHT22;35602;44.534;18.696;2022-11-04T15:45:36;23.10;60.40
49711;DHT22;35602;44.534;18.696;2022-11-04T15:50:38;23.10;60.40
49711;DHT22;35602;44.534;18.696;2022-11-04T15:55:39;23.10;60.40
49711;DHT22;35602;44.534;18.696;2022-11-04T16:00:42;23.10;60.40
49711;DHT22;35602;44.534;18.696;2022-11-04T16:05:43;23.10;60.50
49711;DHT22;35602;44.534;18.696;2022-11-04T16:10:43;23.10;60.40
49711;DHT22;35602;44.534;18.696;2022-11-04T16:16:25;23.10;60.40
49711;DHT22;35602;44.534;18.696;2022-11-04T16:21:34;23.10;60.30
49711;DHT22;35602;44.534;18.696;2022-11-04T16:26:41;23.10;60.40
49711;DHT22;35602;44.534;18.696;2022-11-04T16:31:44;23.00;60.50
49711;DHT22;35602;44.534;18.696;2022-11-04T16:36:45;23.10;60.40
49711;DHT22;35602;44.534;18.696;2022-11-04T16:41:46;23.10;60.40
49711;DHT22;35602;44.534;18.696;2022-11-04T16:46:47;23.10;60.40
49711;DHT22;35602;44.534;18.696;2022-11-04T16:51:56;23.10;60.40
49711;DHT22;35602;44.534;18.696;2022-11-04T16:56:59;23.20;60.20
49711;DHT22;35602;44.534;18.696;2022-11-04T17:02:34;23.10;60.40
49711;DHT22;35602;44.534;18.696;2022-11-04T17:07:40;23.10;60.40
49711;DHT22;35602;44.534;18.696;2022-11-04T17:12:41;23.10;60.40
49711;DHT22;35602;44.534;18.696;2022-11-04T17:17:44;23.10;60.40
49711;DHT22;35602;44.534;18.696;2022-11-04T17:22:46;23.10;60.30
49711;DHT22;35602;44.534;18.696;2022-11-04T17:27:47;23.00;60.20
49711;DHT22;35602;44.534;18.696;2022-11-04T17:32:49;23.10;60.20
49711;DHT22;35602;44.534;18.696;2022-11-04T17:37:51;23.10;60.20
49711;DHT22;35602;44.534;18.696;2022-11-04T17:42:52;23.10;60.10
49711;DHT22;35602;44.534;18.696;2022-11-04T17:48:11;23.10;60.20
49711;DHT22;35602;44.534;18.696;2022-11-04T17:53:14;23.00;60.10
49711;DHT22;35602;44.534;18.696;2022-11-04T17:58:15;23.00;60.10
49711;DHT22;35602;44.534;18.696;2022-11-04T18:03:16;23.10;60.20
49711;DHT22;35602;44.534;18.696;2022-11-04T18:08:17;23.20;60.10
49711;DHT22;35602;44.534;18.696;2022-11-04T18:13:17;23.00;60.10
49711;DHT22;35602;44.534;18.696;2022-11-04T18:18:19;23.10;60.10
49711;DHT22;35602;44.534;18.696;2022-11-04T18:23:20;23.10;60.10
49711;DHT22;35602;44.534;18.696;2022-11-04T18:28:22;23.00;60.10
49711;DHT22;35602;44.534;18.696;2022-11-04T18:33:22;23.00;60.00
49711;DHT22;35602;44.534;18.696;2022-11-04T18:38:23;23.00;60.10
49711;DHT22;35602;44.534;18.696;2022-11-04T18:43:24;23.00;60.00
49711;DHT22;35602;44.534;18.696;2022-11-04T18:48:25;23.00;60.00
49711;DHT22;35602;44.534;18.696;2022-11-04T18:53:26;23.00;60.00
49711;DHT22;35602;44.534;18.696;2022-11-04T18:58:30;23.00;60.00
49711;DHT22;35602;44.534;18.696;2022-11-04T19:03:33;23.00;60.00
49711;DHT22;35602;44.534;18.696;2022-11-04T19:08:34;23.00;60.00
49711;DHT22;35602;44.534;18.696;2022-11-04T19:13:35;23.00;59.90
49711;DHT22;35602;44.534;18.696;2022-11-04T19:18:36;23.00;59.90
49711;DHT22;35602;44.534;18.696;2022-11-04T19:23:38;23.00;60.00
49711;DHT22;35602;44.534;18.696;2022-11-04T19:28:40;23.00;59.90
49711;DHT22;35602;44.534;18.696;2022-11-04T19:33:41;23.00;60.00
49711;DHT22;35602;44.534;18.696;2022-11-04T19:38:42;23.00;60.00
49711;DHT22;35602;44.534;18.696;2022-11-04T19:43:43;23.00;60.00
49711;DHT22;35602;44.534;18.696;2022-11-04T19:48:44;23.00;60.00
49711;DHT22;35602;44.534;18.696;2022-11-04T19:53:45;23.00;60.00
49711;DHT22;35602;44.534;18.696;2022-11-04T19:58:46;23.00;60.00
49711;DHT22;35602;44.534;18.696;2022-11-04T20:03:47;23.00;60.50
49711;DHT22;35602;44.534;18.696;2022-11-04T20:08:48;23.00;59.90
49711;DHT22;35602;44.534;18.696;2022-11-04T20:13:49;23.00;60.00
49711;DHT22;35602;44.534;18.696;2022-11-04T20:18:59;23.20;60.10
49711;DHT22;35602;44.534;18.696;2022-11-04T20:24:05;23.00;60.00
49711;DHT22;35602;44.534;18.696;2022-11-04T20:29:06;23.00;60.00
49711;DHT22;35602;44.534;18.696;2022-11-04T20:34:09;23.00;59.90
49711;DHT22;35602;44.534;18.696;2022-11-04T20:39:16;23.00;59.90
49711;DHT22;35602;44.534;18.696;2022-11-04T20:44:17;23.00;59.90
49711;DHT22;35602;44.534;18.696;2022-11-04T20:49:18;23.00;59.90
49711;DHT22;35602;44.534;18.696;2022-11-04T20:54:19;23.00;59.80
49711;DHT22;35602;44.534;18.696;2022-11-04T20:59:21;23.00;59.80
49711;DHT22;35602;44.534;18.696;2022-11-04T21:04:21;23.00;59.80
49711;DHT22;35602;44.534;18.696;2022-11-04T21:09:22;23.00;59.80
49711;DHT22;35602;44.534;18.696;2022-11-04T21:14:23;23.00;59.90
49711;DHT22;35602;44.534;18.696;2022-11-04T21:19:24;23.00;59.80
49711;DHT22;35602;44.534;18.696;2022-11-04T21:24:25;23.00;59.70
49711;DHT22;35602;44.534;18.696;2022-11-04T21:29:26;23.00;59.70
49711;DHT22;35602;44.534;18.696;2022-11-04T21:34:26;23.00;59.80
49711;DHT22;35602;44.534;18.696;2022-11-04T21:39:28;23.00;59.80
49711;DHT22;35602;44.534;18.696;2022-11-04T21:44:28;23.00;59.70
49711;DHT22;35602;44.534;18.696;2022-11-04T21:49:29;23.00;59.80
49711;DHT22;35602;44.534;18.696;2022-11-04T21:54:30;23.00;59.80
49711;DHT22;35602;44.534;18.696;2022-11-04T21:59:31;23.00;59.70
49711;DHT22;35602;44.534;18.696;2022-11-04T22:04:31;23.00;59.80
49711;DHT22;35602;44.534;18.696;2022-11-04T22:09:32;23.00;59.90
49711;DHT22;35602;44.534;18.696;2022-11-04T22:14:33;23.00;59.80
49711;DHT22;35602;44.534;18.696;2022-11-04T22:19:34;23.00;59.80
49711;DHT22;35602;44.534;18.696;2022-11-04T22:24:35;23.00;59.80
49711;DHT22;35602;44.534;18.696;2022-11-04T22:29:35;23.00;59.80
49711;DHT22;35602;44.534;18.696;2022-11-04T22:34:36;23.10;59.90
49711;DHT22;35602;44.534;18.696;2022-11-04T22:39:37;23.00;59.80
49711;DHT22;35602;44.534;18.696;2022-11-04T22:44:38;23.00;59.80
49711;DHT22;35602;44.534;18.696;2022-11-04T22:49:39;23.00;59.90
49711;DHT22;35602;44.534;18.696;2022-11-04T22:54:39;23.00;59.80
49711;DHT22;35602;44.534;18.696;2022-11-04T22:59:40;22.90;59.80
49711;DHT22;35602;44.534;18.696;2022-11-04T23:04:41;23.00;59.90
49711;DHT22;35602;44.534;18.696;2022-11-04T23:09:42;22.90;59.80
49711;DHT22;35602;44.534;18.696;2022-11-04T23:15:01;22.90;59.70
49711;DHT22;35602;44.534;18.696;2022-11-04T23:20:20;22.90;59.70
49711;DHT22;35602;44.534;18.696;2022-11-04T23:25:27;22.90;59.90
49711;DHT22;35602;44.534;18.696;2022-11-04T23:30:30;22.90;59.90
49711;DHT22;35602;44.534;18.696;2022-11-04T23:35:43;22.90;59.90
49711;DHT22;35602;44.534;18.696;2022-11-04T23:41:05;23.10;59.80
49711;DHT22;35602;44.534;18.696;2022-11-04T23:46:25;22.90;59.90
49711;DHT22;35602;44.534;18.696;2022-11-04T23:51:44;22.90;59.80
49711;DHT22;35602;44.534;18.696;2022-11-04T23:57:04;22.90;59.80
